sensor_id;sensor_type;location;lat;lon;timestamp;temperature;humidity
44559;DHT22;30270;40.238;18.256;2022-08-19T00:02:15;27.90;98.80
44559;DHT22;30270;40.238;18.256;2022-08-19T00:04:43;27.80;98.60
44559;DHT22;30270;40.238;18.256;2022-08-19T00:07:13;27.80;98.30
44559;DHT22;30270;40.238;18.256;2022-08-19T00:09:41;27.70;98.40
44559;DHT22;30270;40.238;18.256;2022-08-19T00:12:08;27.70;98.70
44559;DHT22;30270;40.238;18.256;2022-08-19T00:14:37;27.60;98.80
44559;DHT22;30270;40.238;18.256;2022-08-19T00:17:06;27.60;98.70
44559;DHT22;30270;40.238;18.256;2022-08-19T00:19:36;27.60;98.60
44559;DHT22;30270;40.238;18.256;2022-08-19T00:22:04;27.60;98.50
44559;DHT22;30270;40.238;18.256;2022-08-19T00:24:32;27.60;98.50
44559;DHT22;30270;40.238;18.256;2022-08-19T00:27:00;27.70;98.50
44559;DHT22;30270;40.238;18.256;2022-08-19T00:29:28;27.80;98.60
44559;DHT22;30270;40.238;18.256;2022-08-19T00:31:57;27.80;98.60
44559;DHT22;30270;40.238;18.256;2022-08-19T00:34:26;27.80;98.60
44559;DHT22;30270;40.238;18.256;2022-08-19T00:36:58;27.80;98.60
44559;DHT22;30270;40.238;18.256;2022-08-19T00:39:25;27.70;98.80
44559;DHT22;30270;40.238;18.256;2022-08-19T00:41:53;27.70;98.90
44559;DHT22;30270;40.238;18.256;2022-08-19T00:44:24;27.70;99.10
44559;DHT22;30270;40.238;18.256;2022-08-19T00:46:55;27.50;99.30
44559;DHT22;30270;40.238;18.256;2022-08-19T00:49:27;27.50;99.50
44559;DHT22;30270;40.238;18.256;2022-08-19T00:52:20;27.30;99.50
44559;DHT22;30270;40.238;18.256;2022-08-19T00:54:49;27.20;99.40
44559;DHT22;30270;40.238;18.256;2022-08-19T00:57:24;27.10;99.40
44559;DHT22;30270;40.238;18.256;2022-08-19T00:59:55;27.20;99.30
44559;DHT22;30270;40.238;18.256;2022-08-19T01:02:24;27.20;99.20
44559;DHT22;30270;40.238;18.256;2022-08-19T01:04:52;27.10;99.10
44559;DHT22;30270;40.238;18.256;2022-08-19T01:07:20;27.10;99.10
44559;DHT22;30270;40.238;18.256;2022-08-19T01:09:48;27.10;99.10
44559;DHT22;30270;40.238;18.256;2022-08-19T01:12:17;27.00;99.00
44559;DHT22;30270;40.238;18.256;2022-08-19T01:14:45;27.10;98.70
44559;DHT22;30270;40.238;18.256;2022-08-19T01:17:14;27.20;98.50
44559;DHT22;30270;40.238;18.256;2022-08-19T01:19:43;27.30;98.20
44559;DHT22;30270;40.238;18.256;2022-08-19T01:22:46;27.30;98.00
44559;DHT22;30270;40.238;18.256;2022-08-19T01:25:20;27.40;97.80
44559;DHT22;30270;40.238;18.256;2022-08-19T01:27:50;27.50;97.60
44559;DHT22;30270;40.238;18.256;2022-08-19T01:30:32;27.40;97.40
44559;DHT22;30270;40.238;18.256;2022-08-19T01:33:01;27.40;97.10
44559;DHT22;30270;40.238;18.256;2022-08-19T01:35:30;27.50;96.90
44559;DHT22;30270;40.238;18.256;2022-08-19T01:38:03;27.50;96.70
44559;DHT22;30270;40.238;18.256;2022-08-19T01:40:36;27.50;96.70
44559;DHT22;30270;40.238;18.256;2022-08-19T01:43:05;27.60;96.70
44559;DHT22;30270;40.238;18.256;2022-08-19T01:45:36;27.60;96.70
44559;DHT22;30270;40.238;18.256;2022-08-19T01:48:08;27.60;96.40
44559;DHT22;30270;40.238;18.256;2022-08-19T01:50:37;27.60;96.30
44559;DHT22;30270;40.238;18.256;2022-08-19T01:53:07;27.70;96.30
44559;DHT22;30270;40.238;18.256;2022-08-19T01:55:40;27.70;96.40
44559;DHT22;30270;40.238;18.256;2022-08-19T01:58:15;27.70;96.20
44559;DHT22;30270;40.238;18.256;2022-08-19T02:00:44;27.70;96.30
44559;DHT22;30270;40.238;18.256;2022-08-19T02:03:12;27.70;96.20
44559;DHT22;30270;40.238;18.256;2022-08-19T02:05:41;27.70;96.20
44559;DHT22;30270;40.238;18.256;2022-08-19T02:08:10;27.60;96.20
44559;DHT22;30270;40.238;18.256;2022-08-19T02:10:43;27.50;96.40
44559;DHT22;30270;40.238;18.256;2022-08-19T02:13:12;27.50;96.50
44559;DHT22;30270;40.238;18.256;2022-08-19T02:15:40;27.40;96.70
44559;DHT22;30270;40.238;18.256;2022-08-19T02:18:08;27.30;96.90
44559;DHT22;30270;40.238;18.256;2022-08-19T02:20:37;27.40;96.90
44559;DHT22;30270;40.238;18.256;2022-08-19T02:23:06;27.40;97.00
44559;DHT22;30270;40.238;18.256;2022-08-19T02:25:34;27.50;97.00
44559;DHT22;30270;40.238;18.256;2022-08-19T02:28:02;27.50;97.10
44559;DHT22;30270;40.238;18.256;2022-08-19T02:30:31;27.50;97.10
44559;DHT22;30270;40.238;18.256;2022-08-19T02:32:58;27.50;97.20
44559;DHT22;30270;40.238;18.256;2022-08-19T02:35:26;27.50;97.30
44559;DHT22;30270;40.238;18.256;2022-08-19T02:37:54;27.60;97.30
44559;DHT22;30270;40.238;18.256;2022-08-19T02:40:40;27.60;97.40
44559;DHT22;30270;40.238;18.256;2022-08-19T02:43:08;27.60;97.60
44559;DHT22;30270;40.238;18.256;2022-08-19T02:45:38;27.50;97.60
44559;DHT22;30270;40.238;18.256;2022-08-19T02:48:07;27.50;97.80
44559;DHT22;30270;40.238;18.256;2022-08-19T02:50:39;27.40;98.00
44559;DHT22;30270;40.238;18.256;2022-08-19T02:53:07;27.40;98.50
44559;DHT22;30270;40.238;18.256;2022-08-19T02:55:35;27.40;98.70
44559;DHT22;30270;40.238;18.256;2022-08-19T02:58:03;27.30;99.20
44559;DHT22;30270;40.238;18.256;2022-08-19T03:00:30;27.30;99.50
44559;DHT22;30270;40.238;18.256;2022-08-19T03:02:58;27.30;99.70
44559;DHT22;30270;40.238;18.256;2022-08-19T03:05:25;27.20;99.70
44559;DHT22;30270;40.238;18.256;2022-08-19T03:07:54;27.20;99.90
44559;DHT22;30270;40.238;18.256;2022-08-19T03:10:22;27.10;99.90
44559;DHT22;30270;40.238;18.256;2022-08-19T03:12:50;27.10;99.90
44559;DHT22;30270;40.238;18.256;2022-08-19T03:15:17;27.10;99.90
44559;DHT22;30270;40.238;18.256;2022-08-19T03:17:45;27.10;99.90
44559;DHT22;30270;40.238;18.256;2022-08-19T03:20:13;27.10;99.90
44559;DHT22;30270;40.238;18.256;2022-08-19T03:22:40;27.00;99.90
44559;DHT22;30270;40.238;18.256;2022-08-19T03:25:08;27.00;99.90
44559;DHT22;30270;40.238;18.256;2022-08-19T03:27:35;27.00;99.90
44559;DHT22;30270;40.238;18.256;2022-08-19T03:30:03;26.80;99.90
44559;DHT22;30270;40.238;18.256;2022-08-19T03:32:31;26.80;99.90
44559;DHT22;30270;40.238;18.256;2022-08-19T03:34:59;26.70;99.90
44559;DHT22;30270;40.238;18.256;2022-08-19T03:37:27;26.60;99.90
44559;DHT22;30270;40.238;18.256;2022-08-19T03:39:55;26.60;99.90
44559;DHT22;30270;40.238;18.256;2022-08-19T03:42:23;26.40;99.90
44559;DHT22;30270;40.238;18.256;2022-08-19T03:44:50;26.40;99.90
44559;DHT22;30270;40.238;18.256;2022-08-19T03:47:18;26.40;99.90
44559;DHT22;30270;40.238;18.256;2022-08-19T03:49:45;26.40;99.90
44559;DHT22;30270;40.238;18.256;2022-08-19T03:52:13;26.40;99.90
44559;DHT22;30270;40.238;18.256;2022-08-19T03:54:41;26.50;99.80
44559;DHT22;30270;40.238;18.256;2022-08-19T03:57:09;26.50;99.30
44559;DHT22;30270;40.238;18.256;2022-08-19T03:59:37;26.60;98.90
44559;DHT22;30270;40.238;18.256;2022-08-19T04:02:09;26.60;98.60
44559;DHT22;30270;40.238;18.256;2022-08-19T04:04:40;26.70;98.50
44559;DHT22;30270;40.238;18.256;2022-08-19T04:07:09;26.80;98.50
44559;DHT22;30270;40.238;18.256;2022-08-19T04:09:38;26.80;98.80
44559;DHT22;30270;40.238;18.256;2022-08-19T04:12:06;26.80;98.80
44559;DHT22;30270;40.238;18.256;2022-08-19T04:14:34;26.80;99.10
44559;DHT22;30270;40.238;18.256;2022-08-19T04:17:02;26.80;99.40
44559;DHT22;30270;40.238;18.256;2022-08-19T04:19:35;26.70;99.70
44559;DHT22;30270;40.238;18.256;2022-08-19T04:22:03;26.70;99.90
44559;DHT22;30270;40.238;18.256;2022-08-19T04:24:31;26.60;99.90
44559;DHT22;30270;40.238;18.256;2022-08-19T04:27:00;26.80;99.90
44559;DHT22;30270;40.238;18.256;2022-08-19T04:29:28;26.80;99.90
44559;DHT22;30270;40.238;18.256;2022-08-19T04:31:58;26.70;99.90
44559;DHT22;30270;40.238;18.256;2022-08-19T04:34:28;26.80;99.90
44559;DHT22;30270;40.238;18.256;2022-08-19T04:36:57;26.80;99.90
44559;DHT22;30270;40.238;18.256;2022-08-19T04:39:29;26.80;99.90
44559;DHT22;30270;40.238;18.256;2022-08-19T04:42:18;26.70;99.90
44559;DHT22;30270;40.238;18.256;2022-08-19T04:45:13;26.60;99.90
44559;DHT22;30270;40.238;18.256;2022-08-19T04:47:42;26.60;99.90
44559;DHT22;30270;40.238;18.256;2022-08-19T04:50:11;26.70;99.90
44559;DHT22;30270;40.238;18.256;2022-08-19T04:52:39;26.70;99.90
44559;DHT22;30270;40.238;18.256;2022-08-19T04:55:11;26.80;99.90
44559;DHT22;30270;40.238;18.256;2022-08-19T04:57:38;26.70;99.90
44559;DHT22;30270;40.238;18.256;2022-08-19T05:00:09;26.60;99.90
44559;DHT22;30270;40.238;18.256;2022-08-19T05:02:38;26.50;99.90
44559;DHT22;30270;40.238;18.256;2022-08-19T05:05:06;26.60;99.90
44559;DHT22;30270;40.238;18.256;2022-08-19T05:07:34;26.60;99.90
44559;DHT22;30270;40.238;18.256;2022-08-19T05:10:04;26.70;99.90
44559;DHT22;30270;40.238;18.256;2022-08-19T05:12:32;26.80;99.90
44559;DHT22;30270;40.238;18.256;2022-08-19T05:15:03;26.90;99.90
44559;DHT22;30270;40.238;18.256;2022-08-19T05:17:31;26.90;99.90
44559;DHT22;30270;40.238;18.256;2022-08-19T05:20:04;27.00;99.90
44559;DHT22;30270;40.238;18.256;2022-08-19T05:22:51;27.10;99.90
44559;DHT22;30270;40.238;18.256;2022-08-19T05:25:20;27.10;99.90
44559;DHT22;30270;40.238;18.256;2022-08-19T05:27:48;27.20;99.90
44559;DHT22;30270;40.238;18.256;2022-08-19T05:30:16;27.30;99.90
44559;DHT22;30270;40.238;18.256;2022-08-19T05:32:44;27.50;99.90
44559;DHT22;30270;40.238;18.256;2022-08-19T05:35:12;27.50;99.90
44559;DHT22;30270;40.238;18.256;2022-08-19T05:37:40;27.70;99.90
44559;DHT22;30270;40.238;18.256;2022-08-19T05:40:09;27.90;99.90
44559;DHT22;30270;40.238;18.256;2022-08-19T05:42:37;28.00;99.90
44559;DHT22;30270;40.238;18.256;2022-08-19T05:45:05;28.20;99.90
44559;DHT22;30270;40.238;18.256;2022-08-19T05:47:34;28.50;99.90
44559;DHT22;30270;40.238;18.256;2022-08-19T05:50:03;28.60;99.90
44559;DHT22;30270;40.238;18.256;2022-08-19T05:52:31;28.80;99.90
44559;DHT22;30270;40.238;18.256;2022-08-19T05:55:00;28.90;99.90
44559;DHT22;30270;40.238;18.256;2022-08-19T05:57:28;29.00;99.90
44559;DHT22;30270;40.238;18.256;2022-08-19T05:59:57;29.10;99.90
44559;DHT22;30270;40.238;18.256;2022-08-19T06:02:38;29.10;99.90
44559;DHT22;30270;40.238;18.256;2022-08-19T06:05:06;29.20;99.90
44559;DHT22;30270;40.238;18.256;2022-08-19T06:07:38;29.30;99.90
44559;DHT22;30270;40.238;18.256;2022-08-19T06:10:10;29.30;99.90
44559;DHT22;30270;40.238;18.256;2022-08-19T06:12:38;29.50;99.90
44559;DHT22;30270;40.238;18.256;2022-08-19T06:15:09;29.60;99.90
44559;DHT22;30270;40.238;18.256;2022-08-19T06:17:38;29.60;99.90
44559;DHT22;30270;40.238;18.256;2022-08-19T06:20:08;29.60;99.90
44559;DHT22;30270;40.238;18.256;2022-08-19T06:22:43;29.50;99.90
44559;DHT22;30270;40.238;18.256;2022-08-19T06:25:13;29.70;99.90
44559;DHT22;30270;40.238;18.256;2022-08-19T06:27:41;29.80;99.90
44559;DHT22;30270;40.238;18.256;2022-08-19T06:30:29;29.50;99.90
44559;DHT22;30270;40.238;18.256;2022-08-19T06:32:57;29.40;99.90
44559;DHT22;30270;40.238;18.256;2022-08-19T06:35:25;29.50;99.90
44559;DHT22;30270;40.238;18.256;2022-08-19T06:37:55;29.70;99.90
44559;DHT22;30270;40.238;18.256;2022-08-19T06:40:23;29.70;99.90
44559;DHT22;30270;40.238;18.256;2022-08-19T06:42:51;29.90;99.90
44559;DHT22;30270;40.238;18.256;2022-08-19T06:45:22;30.10;99.90
44559;DHT22;30270;40.238;18.256;2022-08-19T06:47:49;30.20;99.90
44559;DHT22;30270;40.238;18.256;2022-08-19T06:50:22;30.40;99.50
44559;DHT22;30270;40.238;18.256;2022-08-19T06:52:50;30.60;99.00
44559;DHT22;30270;40.238;18.256;2022-08-19T06:55:18;30.80;98.50
44559;DHT22;30270;40.238;18.256;2022-08-19T06:57:46;30.80;98.50
44559;DHT22;30270;40.238;18.256;2022-08-19T07:00:15;30.60;98.70
44559;DHT22;30270;40.238;18.256;2022-08-19T07:02:44;30.70;98.10
44559;DHT22;30270;40.238;18.256;2022-08-19T07:05:12;30.60;98.00
44559;DHT22;30270;40.238;18.256;2022-08-19T07:07:39;30.70;98.30
44559;DHT22;30270;40.238;18.256;2022-08-19T07:10:10;30.70;97.70
44559;DHT22;30270;40.238;18.256;2022-08-19T07:12:38;30.80;97.70
44559;DHT22;30270;40.238;18.256;2022-08-19T07:15:08;31.00;97.50
44559;DHT22;30270;40.238;18.256;2022-08-19T07:17:38;31.00;97.20
44559;DHT22;30270;40.238;18.256;2022-08-19T07:20:07;31.20;96.70
44559;DHT22;30270;40.238;18.256;2022-08-19T07:22:35;31.20;97.10
44559;DHT22;30270;40.238;18.256;2022-08-19T07:25:03;31.40;97.40
44559;DHT22;30270;40.238;18.256;2022-08-19T07:27:31;31.60;97.10
44559;DHT22;30270;40.238;18.256;2022-08-19T07:29:58;31.80;96.90
44559;DHT22;30270;40.238;18.256;2022-08-19T07:32:26;31.90;96.50
44559;DHT22;30270;40.238;18.256;2022-08-19T07:34:54;32.00;96.50
44559;DHT22;30270;40.238;18.256;2022-08-19T07:37:24;32.00;96.10
44559;DHT22;30270;40.238;18.256;2022-08-19T07:39:56;32.00;95.30
44559;DHT22;30270;40.238;18.256;2022-08-19T07:42:24;32.10;95.40
44559;DHT22;30270;40.238;18.256;2022-08-19T07:44:53;32.20;95.40
44559;DHT22;30270;40.238;18.256;2022-08-19T07:47:20;32.20;95.20
44559;DHT22;30270;40.238;18.256;2022-08-19T07:49:48;32.30;96.00
44559;DHT22;30270;40.238;18.256;2022-08-19T07:52:16;32.40;96.00
44559;DHT22;30270;40.238;18.256;2022-08-19T07:54:44;32.40;95.90
44559;DHT22;30270;40.238;18.256;2022-08-19T07:57:11;32.60;95.80
44559;DHT22;30270;40.238;18.256;2022-08-19T07:59:39;32.70;95.50
44559;DHT22;30270;40.238;18.256;2022-08-19T08:02:08;32.90;95.10
44559;DHT22;30270;40.238;18.256;2022-08-19T08:04:36;33.00;94.30
44559;DHT22;30270;40.238;18.256;2022-08-19T08:07:22;33.00;93.20
44559;DHT22;30270;40.238;18.256;2022-08-19T08:10:08;33.00;93.70
44559;DHT22;30270;40.238;18.256;2022-08-19T08:12:40;33.10;93.90
44559;DHT22;30270;40.238;18.256;2022-08-19T08:15:13;33.20;93.70
44559;DHT22;30270;40.238;18.256;2022-08-19T08:17:45;33.20;93.30
44559;DHT22;30270;40.238;18.256;2022-08-19T08:20:14;33.30;93.10
44559;DHT22;30270;40.238;18.256;2022-08-19T08:22:46;33.30;92.20
44559;DHT22;30270;40.238;18.256;2022-08-19T08:25:34;33.10;92.30
44559;DHT22;30270;40.238;18.256;2022-08-19T08:28:03;33.00;92.70
44559;DHT22;30270;40.238;18.256;2022-08-19T08:30:31;33.10;93.70
44559;DHT22;30270;40.238;18.256;2022-08-19T08:33:04;33.30;93.60
44559;DHT22;30270;40.238;18.256;2022-08-19T08:35:32;33.40;93.90
44559;DHT22;30270;40.238;18.256;2022-08-19T08:38:00;33.70;93.50
44559;DHT22;30270;40.238;18.256;2022-08-19T08:40:34;33.80;92.60
44559;DHT22;30270;40.238;18.256;2022-08-19T08:46:10;33.90;92.00
44559;DHT22;30270;40.238;18.256;2022-08-19T08:51:48;34.00;93.00
44559;DHT22;30270;40.238;18.256;2022-08-19T08:54:20;34.20;93.10
44559;DHT22;30270;40.238;18.256;2022-08-19T08:56:49;34.30;93.70
44559;DHT22;30270;40.238;18.256;2022-08-19T08:59:24;34.30;94.30
44559;DHT22;30270;40.238;18.256;2022-08-19T09:01:56;34.40;94.60
44559;DHT22;30270;40.238;18.256;2022-08-19T09:04:24;34.30;94.40
44559;DHT22;30270;40.238;18.256;2022-08-19T09:07:13;34.20;94.90
44559;DHT22;30270;40.238;18.256;2022-08-19T09:09:49;34.20;95.20
44559;DHT22;30270;40.238;18.256;2022-08-19T09:15:03;34.00;96.10
44559;DHT22;30270;40.238;18.256;2022-08-19T09:17:31;33.80;96.60
44559;DHT22;30270;40.238;18.256;2022-08-19T09:22:37;33.90;97.50
44559;DHT22;30270;40.238;18.256;2022-08-19T09:25:08;33.90;98.10
44559;DHT22;30270;40.238;18.256;2022-08-19T09:27:38;34.00;98.40
44559;DHT22;30270;40.238;18.256;2022-08-19T09:30:07;34.20;98.30
44559;DHT22;30270;40.238;18.256;2022-08-19T09:32:36;34.10;98.20
44559;DHT22;30270;40.238;18.256;2022-08-19T09:35:04;33.90;98.40
44559;DHT22;30270;40.238;18.256;2022-08-19T09:37:33;33.80;98.30
44559;DHT22;30270;40.238;18.256;2022-08-19T09:40:02;33.90;97.70
44559;DHT22;30270;40.238;18.256;2022-08-19T09:42:30;33.80;97.10
44559;DHT22;30270;40.238;18.256;2022-08-19T09:44:58;33.90;97.80
44559;DHT22;30270;40.238;18.256;2022-08-19T09:47:25;33.60;98.20
44559;DHT22;30270;40.238;18.256;2022-08-19T09:49:55;33.50;97.10
44559;DHT22;30270;40.238;18.256;2022-08-19T09:52:24;33.40;97.40
44559;DHT22;30270;40.238;18.256;2022-08-19T09:54:52;33.40;97.20
44559;DHT22;30270;40.238;18.256;2022-08-19T09:57:20;33.60;95.70
44559;DHT22;30270;40.238;18.256;2022-08-19T09:59:49;33.80;95.80
44559;DHT22;30270;40.238;18.256;2022-08-19T10:02:17;33.80;95.80
44559;DHT22;30270;40.238;18.256;2022-08-19T10:04:47;34.00;96.00
44559;DHT22;30270;40.238;18.256;2022-08-19T10:07:33;34.20;95.20
44559;DHT22;30270;40.238;18.256;2022-08-19T10:10:00;34.60;94.90
44559;DHT22;30270;40.238;18.256;2022-08-19T10:12:30;34.80;95.10
44559;DHT22;30270;40.238;18.256;2022-08-19T10:14:57;34.80;95.10
44559;DHT22;30270;40.238;18.256;2022-08-19T10:17:25;35.20;94.80
44559;DHT22;30270;40.238;18.256;2022-08-19T10:19:53;35.20;94.70
44559;DHT22;30270;40.238;18.256;2022-08-19T10:22:22;35.30;94.40
44559;DHT22;30270;40.238;18.256;2022-08-19T10:24:50;35.10;93.50
44559;DHT22;30270;40.238;18.256;2022-08-19T10:27:19;35.00;93.20
44559;DHT22;30270;40.238;18.256;2022-08-19T10:29:46;35.10;92.20
44559;DHT22;30270;40.238;18.256;2022-08-19T10:32:15;35.10;91.90
44559;DHT22;30270;40.238;18.256;2022-08-19T10:34:43;35.00;91.90
44559;DHT22;30270;40.238;18.256;2022-08-19T10:37:10;35.30;92.10
44559;DHT22;30270;40.238;18.256;2022-08-19T10:39:38;35.50;92.10
44559;DHT22;30270;40.238;18.256;2022-08-19T10:42:07;35.30;91.30
44559;DHT22;30270;40.238;18.256;2022-08-19T10:44:34;35.20;91.40
44559;DHT22;30270;40.238;18.256;2022-08-19T10:47:03;35.20;91.30
44559;DHT22;30270;40.238;18.256;2022-08-19T10:49:31;35.20;91.00
44559;DHT22;30270;40.238;18.256;2022-08-19T10:51:59;35.20;90.70
44559;DHT22;30270;40.238;18.256;2022-08-19T10:55:04;35.20;90.20
44559;DHT22;30270;40.238;18.256;2022-08-19T10:57:52;35.00;88.30
44559;DHT22;30270;40.238;18.256;2022-08-19T11:00:27;34.80;89.20
44559;DHT22;30270;40.238;18.256;2022-08-19T11:02:55;34.90;88.50
44559;DHT22;30270;40.238;18.256;2022-08-19T11:05:23;35.00;87.10
44559;DHT22;30270;40.238;18.256;2022-08-19T11:07:51;35.00;85.80
44559;DHT22;30270;40.238;18.256;2022-08-19T11:10:19;35.20;85.70
44559;DHT22;30270;40.238;18.256;2022-08-19T11:12:47;35.20;85.30
44559;DHT22;30270;40.238;18.256;2022-08-19T11:15:15;35.30;86.40
44559;DHT22;30270;40.238;18.256;2022-08-19T11:17:43;35.30;86.50
44559;DHT22;30270;40.238;18.256;2022-08-19T11:20:13;35.40;85.80
44559;DHT22;30270;40.238;18.256;2022-08-19T11:22:41;35.60;85.80
44559;DHT22;30270;40.238;18.256;2022-08-19T11:25:10;35.60;85.00
44559;DHT22;30270;40.238;18.256;2022-08-19T11:27:41;35.70;84.10
44559;DHT22;30270;40.238;18.256;2022-08-19T11:30:11;35.50;83.70
44559;DHT22;30270;40.238;18.256;2022-08-19T11:32:40;35.40;83.80
44559;DHT22;30270;40.238;18.256;2022-08-19T11:35:10;35.40;83.60
44559;DHT22;30270;40.238;18.256;2022-08-19T11:37:38;35.40;83.70
44559;DHT22;30270;40.238;18.256;2022-08-19T11:40:07;35.40;84.40
44559;DHT22;30270;40.238;18.256;2022-08-19T11:42:35;35.40;87.00
44559;DHT22;30270;40.238;18.256;2022-08-19T11:45:22;35.40;85.20
44559;DHT22;30270;40.238;18.256;2022-08-19T11:47:50;35.10;86.30
44559;DHT22;30270;40.238;18.256;2022-08-19T11:50:18;35.20;86.30
44559;DHT22;30270;40.238;18.256;2022-08-19T11:52:46;35.20;84.20
44559;DHT22;30270;40.238;18.256;2022-08-19T11:55:14;35.10;85.00
44559;DHT22;30270;40.238;18.256;2022-08-19T11:57:42;35.30;85.60
44559;DHT22;30270;40.238;18.256;2022-08-19T12:00:11;35.40;86.00
44559;DHT22;30270;40.238;18.256;2022-08-19T12:02:40;35.40;83.10
44559;DHT22;30270;40.238;18.256;2022-08-19T12:05:09;35.40;83.20
44559;DHT22;30270;40.238;18.256;2022-08-19T12:07:38;35.40;83.70
44559;DHT22;30270;40.238;18.256;2022-08-19T12:10:07;35.40;83.70
44559;DHT22;30270;40.238;18.256;2022-08-19T12:12:34;35.40;83.00
44559;DHT22;30270;40.238;18.256;2022-08-19T12:15:02;35.50;83.70
44559;DHT22;30270;40.238;18.256;2022-08-19T12:17:30;35.60;83.90
44559;DHT22;30270;40.238;18.256;2022-08-19T12:19:58;35.80;82.80
44559;DHT22;30270;40.238;18.256;2022-08-19T12:22:26;36.00;82.60
44559;DHT22;30270;40.238;18.256;2022-08-19T12:24:54;36.10;82.30
44559;DHT22;30270;40.238;18.256;2022-08-19T12:27:22;36.20;82.20
44559;DHT22;30270;40.238;18.256;2022-08-19T12:29:52;36.00;82.40
44559;DHT22;30270;40.238;18.256;2022-08-19T12:32:20;36.00;82.60
44559;DHT22;30270;40.238;18.256;2022-08-19T12:34:48;36.00;80.50
44559;DHT22;30270;40.238;18.256;2022-08-19T12:37:16;36.00;80.60
44559;DHT22;30270;40.238;18.256;2022-08-19T12:39:54;36.10;80.80
44559;DHT22;30270;40.238;18.256;2022-08-19T12:42:23;36.10;80.70
44559;DHT22;30270;40.238;18.256;2022-08-19T12:44:51;36.10;92.10
44559;DHT22;30270;40.238;18.256;2022-08-19T12:47:19;35.80;94.10
44559;DHT22;30270;40.238;18.256;2022-08-19T12:49:48;35.50;95.10
44559;DHT22;30270;40.238;18.256;2022-08-19T12:52:16;35.20;95.40
44559;DHT22;30270;40.238;18.256;2022-08-19T12:54:48;35.00;94.80
44559;DHT22;30270;40.238;18.256;2022-08-19T12:57:17;34.70;94.20
44559;DHT22;30270;40.238;18.256;2022-08-19T12:59:45;34.70;94.20
44559;DHT22;30270;40.238;18.256;2022-08-19T13:02:12;34.60;94.00
44559;DHT22;30270;40.238;18.256;2022-08-19T13:04:40;34.60;94.20
44559;DHT22;30270;40.238;18.256;2022-08-19T13:07:08;34.50;94.40
44559;DHT22;30270;40.238;18.256;2022-08-19T13:09:36;34.50;94.60
44559;DHT22;30270;40.238;18.256;2022-08-19T13:12:04;34.40;94.60
44559;DHT22;30270;40.238;18.256;2022-08-19T13:14:35;34.40;94.70
44559;DHT22;30270;40.238;18.256;2022-08-19T13:17:02;34.40;94.50
44559;DHT22;30270;40.238;18.256;2022-08-19T13:19:31;34.40;94.70
44559;DHT22;30270;40.238;18.256;2022-08-19T13:22:00;34.50;94.70
44559;DHT22;30270;40.238;18.256;2022-08-19T13:24:27;34.50;94.60
44559;DHT22;30270;40.238;18.256;2022-08-19T13:26:55;34.30;94.70
44559;DHT22;30270;40.238;18.256;2022-08-19T13:29:23;34.20;95.00
44559;DHT22;30270;40.238;18.256;2022-08-19T13:32:10;34.30;95.00
44559;DHT22;30270;40.238;18.256;2022-08-19T13:34:56;34.40;94.90
44559;DHT22;30270;40.238;18.256;2022-08-19T13:37:23;34.20;94.80
44559;DHT22;30270;40.238;18.256;2022-08-19T13:40:17;34.10;94.90
44559;DHT22;30270;40.238;18.256;2022-08-19T13:42:48;34.00;94.90
44559;DHT22;30270;40.238;18.256;2022-08-19T13:45:19;34.10;95.00
44559;DHT22;30270;40.238;18.256;2022-08-19T13:47:52;33.90;94.90
44559;DHT22;30270;40.238;18.256;2022-08-19T13:50:27;33.90;95.00
44559;DHT22;30270;40.238;18.256;2022-08-19T13:52:56;33.70;95.10
44559;DHT22;30270;40.238;18.256;2022-08-19T13:55:24;33.50;95.60
44559;DHT22;30270;40.238;18.256;2022-08-19T13:57:53;33.40;96.10
44559;DHT22;30270;40.238;18.256;2022-08-19T14:00:23;33.30;96.60
44559;DHT22;30270;40.238;18.256;2022-08-19T14:02:55;33.30;96.90
44559;DHT22;30270;40.238;18.256;2022-08-19T14:05:26;33.30;97.10
44559;DHT22;30270;40.238;18.256;2022-08-19T14:07:56;33.20;97.10
44559;DHT22;30270;40.238;18.256;2022-08-19T14:10:25;33.20;96.90
44559;DHT22;30270;40.238;18.256;2022-08-19T14:12:58;33.10;97.00
44559;DHT22;30270;40.238;18.256;2022-08-19T14:15:28;33.10;97.20
44559;DHT22;30270;40.238;18.256;2022-08-19T14:17:57;33.20;97.10
44559;DHT22;30270;40.238;18.256;2022-08-19T14:20:25;33.20;96.60
44559;DHT22;30270;40.238;18.256;2022-08-19T14:22:54;33.20;96.80
44559;DHT22;30270;40.238;18.256;2022-08-19T14:25:28;33.20;97.00
44559;DHT22;30270;40.238;18.256;2022-08-19T14:27:57;33.30;97.20
44559;DHT22;30270;40.238;18.256;2022-08-19T14:30:27;33.20;97.20
44559;DHT22;30270;40.238;18.256;2022-08-19T14:32:57;33.30;97.10
44559;DHT22;30270;40.238;18.256;2022-08-19T14:35:27;33.40;97.10
44559;DHT22;30270;40.238;18.256;2022-08-19T14:37:55;33.50;96.90
44559;DHT22;30270;40.238;18.256;2022-08-19T14:40:26;33.50;96.80
44559;DHT22;30270;40.238;18.256;2022-08-19T14:43:00;33.60;96.50
44559;DHT22;30270;40.238;18.256;2022-08-19T14:45:35;33.60;95.90
44559;DHT22;30270;40.238;18.256;2022-08-19T14:48:07;33.70;95.70
44559;DHT22;30270;40.238;18.256;2022-08-19T14:50:36;33.70;95.60
44559;DHT22;30270;40.238;18.256;2022-08-19T14:53:07;33.60;95.60
44559;DHT22;30270;40.238;18.256;2022-08-19T14:55:35;33.40;95.90
44559;DHT22;30270;40.238;18.256;2022-08-19T14:58:03;33.30;96.00
44559;DHT22;30270;40.238;18.256;2022-08-19T15:00:31;33.20;96.30
44559;DHT22;30270;40.238;18.256;2022-08-19T15:02:59;33.00;96.40
44559;DHT22;30270;40.238;18.256;2022-08-19T15:05:27;32.70;96.90
44559;DHT22;30270;40.238;18.256;2022-08-19T15:07:54;32.60;97.40
44559;DHT22;30270;40.238;18.256;2022-08-19T15:10:25;32.50;97.50
44559;DHT22;30270;40.238;18.256;2022-08-19T15:12:52;32.50;97.60
44559;DHT22;30270;40.238;18.256;2022-08-19T15:15:21;32.40;99.00
44559;DHT22;30270;40.238;18.256;2022-08-19T15:17:50;32.20;99.90
44559;DHT22;30270;40.238;18.256;2022-08-19T15:20:19;31.90;99.90
44559;DHT22;30270;40.238;18.256;2022-08-19T15:22:48;31.50;99.90
44559;DHT22;30270;40.238;18.256;2022-08-19T15:25:17;31.30;99.90
44559;DHT22;30270;40.238;18.256;2022-08-19T15:27:47;30.90;99.90
44559;DHT22;30270;40.238;18.256;2022-08-19T15:30:20;30.60;99.90
44559;DHT22;30270;40.238;18.256;2022-08-19T15:32:49;30.40;99.90
44559;DHT22;30270;40.238;18.256;2022-08-19T15:35:17;30.40;99.90
44559;DHT22;30270;40.238;18.256;2022-08-19T15:37:48;30.30;99.90
44559;DHT22;30270;40.238;18.256;2022-08-19T15:40:17;30.30;99.90
44559;DHT22;30270;40.238;18.256;2022-08-19T15:42:45;30.30;99.90
44559;DHT22;30270;40.238;18.256;2022-08-19T15:45:13;30.20;99.90